Time;durP1;ratioP1;P1;durP2;ratioP2;P2;SDS_P1;SDS_P2;PMS_P1;PMS_P2;Temp;Humidity;BMP_temperature;BMP_pressure;BME280_temperature;BME280_humidity;BME280_pressure;Samples;Min_cycle;Max_cycle;Signal;HPM_P1;HPM_P2
2024/02/28 00:00:55;;;;;;;67.43;20.88;;;3.30;99.90;;;;;;5053404;28;20033;-77
2024/02/28 00:03:21;;;;;;;43.63;19.90;;;3.20;99.90;;;;;;5035522;28;20053;-78
2024/02/28 00:05:48;;;;;;;67.03;21.73;;;3.30;99.90;;;;;;5041193;28;20037;-77
2024/02/28 00:08:13;;;;;;;82.03;21.45;;;3.20;99.90;;;;;;5036717;28;20037;-77
2024/02/28 00:10:39;;;;;;;98.63;23.08;;;3.30;99.90;;;;;;5034062;28;20040;-77
2024/02/28 00:13:04;;;;;;;73.05;21.75;;;3.30;99.90;;;;;;5034698;28;20151;-77
2024/02/28 00:15:30;;;;;;;93.70;22.38;;;3.30;99.90;;;;;;5051931;28;20090;-77
2024/02/28 00:17:56;;;;;;;50.25;22.15;;;3.20;99.90;;;;;;5053006;28;20029;-77
2024/02/28 00:20:22;;;;;;;47.58;21.45;;;3.20;99.90;;;;;;5034514;28;20683;-77
2024/02/28 00:22:48;;;;;;;90.93;23.45;;;3.20;99.90;;;;;;5028570;28;20116;-78
2024/02/28 00:25:15;;;;;;;78.57;22.73;;;3.20;99.90;;;;;;5051669;28;20167;-77
2024/02/28 00:27:41;;;;;;;52.60;22.30;;;3.30;99.90;;;;;;5037419;28;20049;-77
2024/02/28 00:30:07;;;;;;;58.10;21.67;;;3.30;99.90;;;;;;5052551;28;20086;-77
2024/02/28 00:32:33;;;;;;;80.53;22.60;;;3.30;99.90;;;;;;5036640;28;20041;-77
2024/02/28 00:34:58;;;;;;;84.13;22.40;;;3.30;99.90;;;;;;5024224;28;20043;-78
2024/02/28 00:37:25;;;;;;;73.70;22.55;;;3.30;99.90;;;;;;5052292;28;20220;-77
2024/02/28 00:39:51;;;;;;;55.08;22.15;;;3.30;99.90;;;;;;5046141;28;20127;-77
2024/02/28 00:42:16;;;;;;;55.22;22.10;;;3.30;99.90;;;;;;5034282;28;20507;-77
2024/02/28 00:44:42;;;;;;;57.63;19.33;;;3.20;99.90;;;;;;5051750;28;20037;-77
2024/02/28 00:47:09;;;;;;;47.17;18.63;;;3.20;99.90;;;;;;5048978;28;20099;-77
2024/02/28 00:49:35;;;;;;;47.08;19.20;;;3.20;99.90;;;;;;5051127;28;20037;-77
2024/02/28 00:52:00;;;;;;;53.72;19.23;;;3.20;99.90;;;;;;5033651;28;20045;-77
2024/02/28 00:54:26;;;;;;;50.78;19.17;;;3.10;99.90;;;;;;5032034;28;20042;-77
2024/02/28 00:56:52;;;;;;;61.50;19.13;;;3.10;99.90;;;;;;5040413;28;20470;-77
2024/02/28 00:59:17;;;;;;;43.30;19.55;;;3.00;99.90;;;;;;5043735;28;20037;-77
2024/02/28 01:01:43;;;;;;;67.47;20.88;;;3.00;99.90;;;;;;5051643;28;20503;-77
2024/02/28 01:04:09;;;;;;;55.55;19.33;;;3.00;99.90;;;;;;5032965;28;20046;-77
2024/02/28 01:06:34;;;;;;;54.13;19.58;;;3.00;99.90;;;;;;5040663;28;20052;-77
2024/02/28 01:09:00;;;;;;;78.28;21.00;;;3.00;99.90;;;;;;5036762;28;20048;-77
2024/02/28 01:11:25;;;;;;;64.10;20.23;;;3.00;99.90;;;;;;5033437;28;20479;-77
2024/02/28 01:13:51;;;;;;;49.70;19.77;;;3.10;99.90;;;;;;5048050;28;20068;-77
2024/02/28 01:16:17;;;;;;;49.85;20.00;;;3.10;99.90;;;;;;5019612;28;20049;-77
2024/02/28 01:18:42;;;;;;;53.30;20.15;;;3.10;99.90;;;;;;5007776;28;20033;-77
2024/02/28 01:21:08;;;;;;;45.40;20.10;;;3.10;99.90;;;;;;5032678;28;20446;-77
2024/02/28 01:23:34;;;;;;;43.17;20.60;;;3.10;99.90;;;;;;5051449;28;20040;-77
2024/02/28 01:26:03;;;;;;;44.70;20.83;;;3.20;99.90;;;;;;5050058;28;20080;-77
2024/02/28 01:28:28;;;;;;;59.65;20.83;;;3.20;99.90;;;;;;5051279;28;20094;-76
2024/02/28 01:30:54;;;;;;;61.47;21.83;;;3.20;99.90;;;;;;5050875;28;20059;-77
2024/02/28 01:33:19;;;;;;;55.75;20.50;;;3.20;99.90;;;;;;5050364;28;20044;-77
2024/02/28 01:35:45;;;;;;;64.15;22.45;;;3.20;99.90;;;;;;5036509;28;20037;-77
2024/02/28 01:38:11;;;;;;;90.85;20.75;;;3.20;99.90;;;;;;5041898;28;20098;-77
2024/02/28 01:40:36;;;;;;;48.38;20.35;;;3.20;99.90;;;;;;5033886;28;20037;-76
2024/02/28 01:43:12;;;;;;;48.40;20.88;;;3.20;99.90;;;;;;5031998;28;20055;-77
2024/02/28 01:45:37;;;;;;;49.67;20.88;;;3.10;99.90;;;;;;5032466;28;20048;-77
2024/02/28 01:48:06;;;;;;;46.13;20.67;;;3.20;99.90;;;;;;5027039;28;20036;-77
2024/02/28 01:50:32;;;;;;;54.83;20.35;;;3.20;99.90;;;;;;5027038;28;20088;-77
2024/02/28 01:52:58;;;;;;;71.50;21.00;;;3.20;99.90;;;;;;5051382;28;20073;-77
2024/02/28 01:55:24;;;;;;;102.63;22.20;;;3.20;99.90;;;;;;5043332;28;20033;-77
2024/02/28 01:57:51;;;;;;;82.32;22.33;;;3.20;99.90;;;;;;5032929;28;20033;-77
2024/02/28 02:00:18;;;;;;;77.30;22.27;;;3.20;99.90;;;;;;5034666;28;20044;-77
2024/02/28 02:02:44;;;;;;;75.30;23.20;;;3.20;99.90;;;;;;5037607;28;20045;-77
2024/02/28 02:05:10;;;;;;;69.07;21.25;;;3.20;99.90;;;;;;5029235;28;20044;-77
2024/02/28 02:07:36;;;;;;;65.88;22.55;;;3.20;99.90;;;;;;5056156;28;20036;-77
2024/02/28 02:10:01;;;;;;;73.82;22.70;;;3.20;99.90;;;;;;5056419;28;20044;-77
2024/02/28 02:12:27;;;;;;;57.50;22.63;;;3.20;99.90;;;;;;5040634;28;20065;-77
2024/02/28 02:14:53;;;;;;;56.75;23.63;;;3.20;99.90;;;;;;5057765;28;20036;-77
2024/02/28 02:17:18;;;;;;;51.55;22.52;;;3.20;99.90;;;;;;5058963;28;20047;-77
2024/02/28 02:19:44;;;;;;;63.40;23.58;;;3.20;99.90;;;;;;5038683;28;20037;-77
2024/02/28 02:22:13;;;;;;;55.78;22.73;;;3.20;99.90;;;;;;5036578;28;20048;-77
2024/02/28 02:24:38;;;;;;;55.92;24.15;;;3.20;99.90;;;;;;5029541;28;20056;-77
2024/02/28 02:27:05;;;;;;;68.93;22.95;;;3.20;99.90;;;;;;5032476;28;20041;-77
2024/02/28 02:29:31;;;;;;;51.35;22.23;;;3.10;99.90;;;;;;5032711;28;20040;-77
2024/02/28 02:31:56;;;;;;;60.88;23.33;;;3.20;99.90;;;;;;5033086;28;20560;-77
2024/02/28 02:34:22;;;;;;;55.63;23.02;;;3.10;99.90;;;;;;5050942;28;20033;-77
2024/02/28 02:36:48;;;;;;;74.43;24.88;;;3.20;99.90;;;;;;5051187;28;20411;-76
2024/02/28 02:39:13;;;;;;;63.63;24.10;;;3.10;99.90;;;;;;5036932;28;20033;-77
2024/02/28 02:41:40;;;;;;;57.80;23.05;;;3.20;99.90;;;;;;5036319;28;20052;-77
2024/02/28 02:44:08;;;;;;;56.63;22.35;;;3.20;99.90;;;;;;5040224;28;20104;-77
2024/02/28 02:46:34;;;;;;;54.88;22.67;;;3.20;99.90;;;;;;5045367;28;20048;-77
2024/02/28 02:48:59;;;;;;;47.92;22.13;;;3.20;99.90;;;;;;5059697;28;20033;-77
2024/02/28 02:51:25;;;;;;;66.63;22.98;;;3.20;99.90;;;;;;5041547;28;20036;-77
2024/02/28 02:53:51;;;;;;;82.10;23.33;;;3.20;99.90;;;;;;5042169;28;20045;-77
2024/02/28 02:56:17;;;;;;;52.90;23.45;;;3.20;99.90;;;;;;5057317;28;20538;-77
2024/02/28 02:58:43;;;;;;;78.07;25.63;;;3.20;99.90;;;;;;5046988;28;20033;-77
2024/02/28 03:01:08;;;;;;;80.43;24.77;;;3.20;99.90;;;;;;5039497;28;20044;-76
2024/02/28 03:03:34;;;;;;;65.80;23.35;;;3.10;99.90;;;;;;5039830;28;20101;-77
2024/02/28 03:06:00;;;;;;;69.50;23.75;;;3.10;99.90;;;;;;5057227;28;20041;-77
2024/02/28 03:08:25;;;;;;;65.95;23.05;;;3.10;99.90;;;;;;5052118;28;20395;-77
2024/02/28 03:10:51;;;;;;;67.80;25.00;;;3.20;99.90;;;;;;5040692;28;20057;-78
2024/02/28 03:13:17;;;;;;;57.63;22.95;;;3.10;99.90;;;;;;5059162;28;20128;-76
2024/02/28 03:15:42;;;;;;;58.50;23.40;;;3.10;99.90;;;;;;5035471;28;20097;-78
2024/02/28 03:18:08;;;;;;;58.05;22.75;;;3.10;99.90;;;;;;5032126;28;20403;-77
2024/02/28 03:20:34;;;;;;;55.35;22.55;;;3.00;99.90;;;;;;5041052;28;20086;-77
2024/02/28 03:23:00;;;;;;;57.80;22.58;;;3.00;99.90;;;;;;5041471;28;20036;-77
2024/02/28 03:25:25;;;;;;;56.30;22.40;;;3.00;99.90;;;;;;5053568;28;20041;-77
2024/02/28 03:27:52;;;;;;;58.72;22.75;;;3.00;99.90;;;;;;5057893;28;20044;-77
2024/02/28 03:30:17;;;;;;;76.22;24.52;;;3.00;99.90;;;;;;5032492;28;20052;-77
2024/02/28 03:32:43;;;;;;;80.50;24.65;;;3.00;99.90;;;;;;5038165;28;20036;-77
2024/02/28 03:35:09;;;;;;;60.17;24.15;;;3.00;99.90;;;;;;5035368;28;20033;-77
2024/02/28 03:37:34;;;;;;;49.72;22.30;;;3.00;99.90;;;;;;5036454;28;20044;-77
2024/02/28 03:40:00;;;;;;;54.00;23.17;;;3.00;99.90;;;;;;5036645;28;20044;-77
2024/02/28 03:42:25;;;;;;;55.78;23.33;;;4.40;99.90;;;;;;5054685;28;20037;-76
2024/02/28 03:44:51;;;;;;;53.45;21.77;;;3.10;99.90;;;;;;5035426;28;20037;-77
2024/02/28 03:47:17;;;;;;;53.53;22.00;;;3.10;99.90;;;;;;5054293;28;20086;-77
2024/02/28 03:49:42;;;;;;;51.75;21.63;;;3.10;99.90;;;;;;5038532;28;20399;-77
2024/02/28 03:52:08;;;;;;;47.83;21.25;;;3.10;99.90;;;;;;5023954;28;20053;-77
2024/02/28 03:54:34;;;;;;;47.20;21.77;;;3.10;99.90;;;;;;5030833;28;20068;-77
2024/02/28 03:56:59;;;;;;;50.20;21.92;;;3.10;99.90;;;;;;5036701;28;20063;-77
2024/02/28 03:59:25;;;;;;;54.10;23.05;;;3.10;99.90;;;;;;5038596;28;20178;-77
2024/02/28 04:01:50;;;;;;;47.50;22.38;;;3.10;99.90;;;;;;5055843;28;20537;-77
2024/02/28 04:04:16;;;;;;;48.85;21.10;;;3.10;99.90;;;;;;5038471;28;20032;-77
2024/02/28 04:06:41;;;;;;;43.77;20.63;;;3.10;99.90;;;;;;5088437;22;20037;-76
2024/02/28 04:09:07;;;;;;;45.90;20.88;;;3.10;99.90;;;;;;5038746;28;20131;-77
2024/02/28 04:11:34;;;;;;;45.05;20.83;;;3.10;99.90;;;;;;5053074;28;20043;-77
2024/02/28 04:13:59;;;;;;;48.45;21.70;;;3.10;99.90;;;;;;5054061;28;20579;-77
2024/02/28 04:16:25;;;;;;;48.13;22.45;;;3.10;99.90;;;;;;5064084;28;20037;-77
2024/02/28 04:18:51;;;;;;;54.38;22.08;;;3.10;99.90;;;;;;5039152;28;20113;-76
2024/02/28 04:21:16;;;;;;;49.05;21.85;;;3.10;99.90;;;;;;5033723;28;20033;-76
2024/02/28 04:23:43;;;;;;;49.42;22.35;;;3.10;99.90;;;;;;5042745;28;20040;-77
2024/02/28 04:26:09;;;;;;;49.13;22.00;;;3.10;99.90;;;;;;5053820;28;20080;-76
2024/02/28 04:28:35;;;;;;;53.83;22.63;;;3.10;99.90;;;;;;5052582;28;20068;-76
2024/02/28 04:31:00;;;;;;;56.05;23.42;;;3.10;99.90;;;;;;5018540;28;20399;-77
2024/02/28 04:33:26;;;;;;;55.08;23.40;;;3.10;99.90;;;;;;5035179;28;20044;-77
2024/02/28 04:35:52;;;;;;;51.10;23.25;;;3.10;99.90;;;;;;5034616;28;20036;-77
2024/02/28 04:38:17;;;;;;;50.58;22.60;;;3.10;99.90;;;;;;5044338;28;20055;-77
2024/02/28 04:40:43;;;;;;;54.17;23.45;;;3.10;99.90;;;;;;5034566;28;20502;-77
2024/02/28 04:43:08;;;;;;;52.03;22.75;;;3.10;99.90;;;;;;5034645;28;20141;-77
2024/02/28 04:45:34;;;;;;;50.53;22.98;;;3.10;99.90;;;;;;5034611;28;20040;-77
2024/02/28 04:48:00;;;;;;;53.40;22.02;;;3.10;99.90;;;;;;5033432;28;20041;-76
2024/02/28 04:50:25;;;;;;;50.72;22.30;;;3.10;99.90;;;;;;5038086;28;20051;-76
2024/02/28 04:52:51;;;;;;;53.42;23.50;;;3.10;99.90;;;;;;5052675;28;20037;-77
2024/02/28 04:55:16;;;;;;;51.92;22.77;;;3.10;99.90;;;;;;5034926;28;20135;-77
2024/02/28 04:57:42;;;;;;;56.28;21.85;;;3.50;99.90;;;;;;5052091;28;20032;-77
2024/02/28 05:00:08;;;;;;;53.72;23.20;;;3.10;99.90;;;;;;5051704;28;20040;-77
2024/02/28 05:02:34;;;;;;;51.75;23.38;;;3.10;99.90;;;;;;5019161;28;20040;-77
2024/02/28 05:04:59;;;;;;;53.78;22.60;;;3.10;99.90;;;;;;5051841;28;20116;-77
2024/02/28 05:07:25;;;;;;;53.38;23.77;;;3.10;99.90;;;;;;5037989;28;20098;-76
2024/02/28 05:09:51;;;;;;;55.47;22.63;;;3.10;99.90;;;;;;5033910;28;20112;-77
2024/02/28 05:12:16;;;;;;;48.03;21.95;;;3.10;99.90;;;;;;5031098;28;20430;-76
2024/02/28 05:14:42;;;;;;;51.75;22.55;;;3.10;99.90;;;;;;5052042;28;20029;-76
2024/02/28 05:17:08;;;;;;;54.65;23.42;;;3.10;99.90;;;;;;5033562;28;20495;-77
2024/02/28 05:19:33;;;;;;;59.10;23.80;;;3.10;99.90;;;;;;5035627;28;20037;-77
2024/02/28 05:22:00;;;;;;;59.85;23.23;;;3.20;99.90;;;;;;5015786;28;20068;-77
2024/02/28 05:24:26;;;;;;;51.42;24.02;;;3.20;99.90;;;;;;5051291;28;20094;-76
2024/02/28 05:26:52;;;;;;;55.63;23.35;;;3.20;99.90;;;;;;5033143;28;20040;-77
2024/02/28 05:29:17;;;;;;;58.20;23.88;;;3.20;99.90;;;;;;5032970;28;20045;-77
2024/02/28 05:31:43;;;;;;;52.28;23.80;;;3.20;99.90;;;;;;5033563;28;20045;-76
2024/02/28 05:34:08;;;;;;;52.90;22.58;;;3.20;99.90;;;;;;5031210;28;20045;-77
2024/02/28 05:36:34;;;;;;;58.17;23.73;;;3.30;99.90;;;;;;5051329;28;20048;-76
2024/02/28 05:39:01;;;;;;;49.72;22.00;;;3.30;99.90;;;;;;5032960;28;20415;-77
2024/02/28 05:41:27;;;;;;;50.47;22.65;;;3.30;99.90;;;;;;5033199;28;20045;-76
2024/02/28 05:43:53;;;;;;;51.58;22.90;;;3.30;99.90;;;;;;5033981;28;20133;-77
2024/02/28 05:46:19;;;;;;;52.25;23.02;;;3.30;99.90;;;;;;5051390;28;20072;-77
2024/02/28 05:48:44;;;;;;;55.38;23.80;;;3.30;99.90;;;;;;5036349;28;20114;-77
2024/02/28 05:51:11;;;;;;;49.72;23.20;;;3.30;99.90;;;;;;5040111;28;20041;-76
2024/02/28 05:53:38;;;;;;;51.58;22.13;;;3.40;99.90;;;;;;5051183;28;20037;-77
2024/02/28 05:56:13;;;;;;;58.25;24.85;;;3.40;99.90;;;;;;5051390;28;20103;-76
2024/02/28 05:58:43;;;;;;;51.00;21.65;;;3.40;99.90;;;;;;5016825;28;20033;-77
2024/02/28 06:01:10;;;;;;;48.67;22.63;;;3.40;99.90;;;;;;5033189;28;20045;-77
2024/02/28 06:03:36;;;;;;;52.30;22.10;;;3.40;99.90;;;;;;5033593;28;20483;-76
2024/02/28 06:06:04;;;;;;;51.03;23.42;;;3.40;99.90;;;;;;5032753;28;20036;-76
2024/02/28 06:08:32;;;;;;;54.15;23.20;;;3.40;99.90;;;;;;5034106;28;20061;-77
2024/02/28 06:10:57;;;;;;;49.38;23.17;;;3.40;99.90;;;;;;5041133;28;20044;-76
2024/02/28 06:13:23;;;;;;;50.17;22.23;;;3.50;99.90;;;;;;5053748;28;20426;-76
2024/02/28 06:15:48;;;;;;;51.78;22.65;;;3.50;99.90;;;;;;5054893;28;20037;-77
2024/02/28 06:18:14;;;;;;;49.97;23.02;;;3.50;99.90;;;;;;5036157;28;20043;-77
2024/02/28 06:20:40;;;;;;;48.45;22.98;;;3.40;99.90;;;;;;5045780;28;20564;-76
2024/02/28 06:23:05;;;;;;;46.63;21.75;;;3.50;99.90;;;;;;5051082;28;20561;-77
2024/02/28 06:25:33;;;;;;;50.38;22.98;;;3.50;99.90;;;;;;5035348;28;20434;-77
2024/02/28 06:28:00;;;;;;;54.15;23.23;;;3.50;99.90;;;;;;5037252;28;20041;-78
2024/02/28 06:30:25;;;;;;;51.22;22.92;;;3.50;99.90;;;;;;5019546;28;20047;-78
2024/02/28 06:32:51;;;;;;;53.03;23.77;;;3.50;99.90;;;;;;5034210;28;20399;-77
2024/02/28 06:35:17;;;;;;;51.25;23.20;;;3.50;99.90;;;;;;5038970;28;20094;-77
2024/02/28 06:37:49;;;;;;;52.63;22.95;;;3.50;99.90;;;;;;5020564;28;20661;-77
2024/02/28 06:40:15;;;;;;;47.60;22.30;;;3.50;99.90;;;;;;5038432;28;20033;-77
2024/02/28 06:42:41;;;;;;;48.58;23.15;;;3.50;99.90;;;;;;5053372;28;20414;-78
2024/02/28 06:45:08;;;;;;;49.30;23.50;;;3.50;99.90;;;;;;5037194;28;20041;-78
2024/02/28 06:47:34;;;;;;;50.17;23.48;;;3.50;99.90;;;;;;5037416;28;20124;-78
2024/02/28 06:50:00;;;;;;;50.22;22.25;;;3.60;99.90;;;;;;5036785;28;20064;-77
2024/02/28 06:52:25;;;;;;;50.83;23.60;;;3.60;99.90;;;;;;5035374;28;20557;-77
2024/02/28 06:54:51;;;;;;;51.92;24.20;;;3.60;99.90;;;;;;5038178;28;20438;-76
2024/02/28 06:57:17;;;;;;;50.95;22.88;;;3.60;99.90;;;;;;5041980;28;20037;-77
2024/02/28 06:59:42;;;;;;;52.38;23.85;;;3.60;99.90;;;;;;5055326;28;20600;-77
2024/02/28 07:02:08;;;;;;;53.13;23.58;;;3.60;99.90;;;;;;5034630;28;20041;-78
2024/02/28 07:04:33;;;;;;;55.80;24.83;;;3.70;99.90;;;;;;5017614;28;20128;-77
2024/02/28 07:06:59;;;;;;;59.25;25.13;;;3.70;99.90;;;;;;5043108;28;20380;-77
2024/02/28 07:09:30;;;;;;;53.20;24.48;;;3.70;99.90;;;;;;5053535;28;20112;-77
2024/02/28 07:11:56;;;;;;;56.17;24.90;;;3.70;99.90;;;;;;5053818;28;20041;-77
2024/02/28 07:14:22;;;;;;;50.13;24.02;;;3.70;99.90;;;;;;5027122;28;20054;-78
2024/02/28 07:16:47;;;;;;;54.78;24.65;;;3.70;99.90;;;;;;5053085;28;20695;-77
2024/02/28 07:19:13;;;;;;;62.50;26.05;;;3.70;99.90;;;;;;5050409;28;20079;-77
2024/02/28 07:21:38;;;;;;;56.58;25.35;;;3.70;99.90;;;;;;5052030;28;20036;-77
2024/02/28 07:24:05;;;;;;;61.85;25.90;;;3.70;99.90;;;;;;5033208;28;20039;-77
2024/02/28 07:26:31;;;;;;;54.35;24.27;;;3.70;99.90;;;;;;5052869;28;20037;-78
2024/02/28 07:28:57;;;;;;;57.50;26.05;;;3.80;99.90;;;;;;5053679;28;20037;-77
2024/02/28 07:31:23;;;;;;;58.33;25.05;;;3.80;99.90;;;;;;5053517;28;20411;-77
2024/02/28 07:33:48;;;;;;;59.38;26.15;;;3.80;99.90;;;;;;5034990;28;20028;-77
2024/02/28 07:36:14;;;;;;;60.08;25.63;;;3.80;99.90;;;;;;5052984;28;20068;-78
2024/02/28 07:38:42;;;;;;;60.80;25.30;;;3.80;99.90;;;;;;5042352;28;20045;-77
2024/02/28 07:41:07;;;;;;;63.67;28.17;;;3.80;99.90;;;;;;5035222;28;20037;-77
2024/02/28 07:43:37;;;;;;;60.80;26.65;;;3.80;99.90;;;;;;5052245;28;20443;-77
2024/02/28 07:46:07;;;;;;;55.55;25.08;;;3.80;99.90;;;;;;5033207;28;20403;-78
2024/02/28 07:48:32;;;;;;;58.05;27.20;;;3.80;99.90;;;;;;5029287;28;20045;-78
2024/02/28 07:50:58;;;;;;;55.55;25.48;;;3.90;99.90;;;;;;5033197;28;20439;-78
2024/02/28 07:53:23;;;;;;;60.97;26.92;;;3.90;99.90;;;;;;5038747;28;20043;-78
2024/02/28 07:55:50;;;;;;;61.53;26.55;;;3.90;99.90;;;;;;5045588;28;20037;-78
2024/02/28 07:58:16;;;;;;;60.83;26.27;;;3.90;99.90;;;;;;5022352;28;20037;-77
2024/02/28 08:00:43;;;;;;;56.15;26.85;;;3.90;99.90;;;;;;5029918;28;20041;-78
2024/02/28 08:03:09;;;;;;;59.30;26.63;;;3.90;99.90;;;;;;5032284;28;20098;-78
2024/02/28 08:05:38;;;;;;;53.90;25.48;;;3.90;99.90;;;;;;5016134;28;20041;-78
2024/02/28 08:08:06;;;;;;;59.38;26.10;;;3.90;99.90;;;;;;5033727;28;20064;-78
2024/02/28 08:10:31;;;;;;;57.75;27.67;;;4.00;99.90;;;;;;5034666;28;20502;-78
2024/02/28 08:12:57;;;;;;;60.00;26.80;;;4.00;99.90;;;;;;5030507;28;20112;-78
2024/02/28 08:15:23;;;;;;;57.30;27.13;;;4.00;99.90;;;;;;5033916;28;20043;-78
2024/02/28 08:17:49;;;;;;;56.13;26.40;;;4.70;99.90;;;;;;5036710;28;20612;-78
2024/02/28 08:20:14;;;;;;;60.50;26.52;;;4.10;99.90;;;;;;5039819;28;20040;-78
2024/02/28 08:22:40;;;;;;;59.60;27.20;;;4.00;99.90;;;;;;5034152;28;20127;-77
2024/02/28 08:25:06;;;;;;;56.95;26.27;;;4.00;99.90;;;;;;5032288;28;20098;-77
2024/02/28 08:27:34;;;;;;;63.35;28.17;;;4.10;99.90;;;;;;5030570;28;20073;-77
2024/02/28 08:30:00;;;;;;;59.85;27.13;;;4.10;99.90;;;;;;5047524;28;20097;-77
2024/02/28 08:32:25;;;;;;;57.55;28.20;;;4.10;99.90;;;;;;5033770;28;20044;-77
2024/02/28 08:34:53;;;;;;;55.78;27.88;;;4.10;99.90;;;;;;5050270;28;20048;-77
2024/02/28 08:37:18;;;;;;;58.08;27.13;;;4.10;99.90;;;;;;5029435;28;20036;-77
2024/02/28 08:39:44;;;;;;;59.75;28.30;;;4.10;99.90;;;;;;5048211;28;20495;-77
2024/02/28 08:42:10;;;;;;;59.58;28.48;;;4.10;99.90;;;;;;5048194;28;20053;-77
2024/02/28 08:44:36;;;;;;;57.22;26.85;;;4.20;99.90;;;;;;5050021;28;20606;-77
2024/02/28 08:47:02;;;;;;;57.78;27.45;;;4.20;99.90;;;;;;5048679;28;20121;-76
2024/02/28 08:49:29;;;;;;;61.58;29.00;;;4.30;99.90;;;;;;5028812;28;20120;-77
2024/02/28 08:51:54;;;;;;;59.80;28.52;;;4.30;99.90;;;;;;5034243;28;20507;-77
2024/02/28 08:54:20;;;;;;;62.40;30.60;;;4.30;99.90;;;;;;5032272;28;20072;-77
2024/02/28 08:56:46;;;;;;;63.05;30.08;;;4.40;99.90;;;;;;5039590;28;20028;-77
2024/02/28 08:59:12;;;;;;;57.55;29.80;;;4.50;99.90;;;;;;5035257;28;20083;-77
2024/02/28 09:01:37;;;;;;;60.90;29.15;;;4.50;99.90;;;;;;5039420;28;20509;-77
2024/02/28 09:04:03;;;;;;;63.28;29.98;;;4.60;99.90;;;;;;5056616;28;20111;-76
2024/02/28 09:06:35;;;;;;;58.50;29.25;;;4.60;99.90;;;;;;5044909;28;20487;-77
2024/02/28 09:09:00;;;;;;;55.90;28.55;;;4.70;99.90;;;;;;5055469;28;20037;-77
2024/02/28 09:11:26;;;;;;;58.28;28.55;;;4.70;99.90;;;;;;5035480;28;20186;-76
2024/02/28 09:13:52;;;;;;;56.33;28.92;;;4.80;99.90;;;;;;5038972;28;20032;-77
2024/02/28 09:16:18;;;;;;;59.20;29.77;;;4.90;99.90;;;;;;5039450;28;20076;-77
2024/02/28 09:18:44;;;;;;;62.70;29.75;;;5.00;99.90;;;;;;5050816;28;20036;-77
2024/02/28 09:21:10;;;;;;;59.83;29.67;;;5.10;99.90;;;;;;5032635;28;20045;-78
2024/02/28 09:23:36;;;;;;;60.28;30.92;;;5.10;99.90;;;;;;5049702;28;20136;-77
2024/02/28 09:26:05;;;;;;;56.83;29.15;;;5.20;99.90;;;;;;5033730;28;20120;-77
2024/02/28 09:28:31;;;;;;;61.00;30.48;;;5.20;99.90;;;;;;5034069;28;20491;-77
2024/02/28 09:30:57;;;;;;;55.22;28.63;;;5.30;99.90;;;;;;5050869;28;20110;-77
2024/02/28 09:33:23;;;;;;;59.72;30.48;;;5.30;99.90;;;;;;5049598;28;20083;-78
2024/02/28 09:35:48;;;;;;;61.67;30.33;;;5.30;99.90;;;;;;5050885;28;20037;-77
2024/02/28 09:38:14;;;;;;;56.58;29.55;;;5.40;99.90;;;;;;5033170;28;20044;-77
2024/02/28 09:40:40;;;;;;;59.70;30.27;;;5.40;99.90;;;;;;5049345;28;20041;-77
2024/02/28 09:43:11;;;;;;;61.47;30.67;;;5.40;99.90;;;;;;5048140;28;20045;-76
2024/02/28 09:45:36;;;;;;;57.30;30.58;;;5.40;99.90;;;;;;5050030;28;20041;-78
2024/02/28 09:48:03;;;;;;;55.35;30.15;;;5.50;99.90;;;;;;5031866;28;20040;-77
2024/02/28 09:50:30;;;;;;;58.15;29.80;;;5.50;99.90;;;;;;5032981;28;20102;-77
2024/02/28 09:52:56;;;;;;;56.25;30.23;;;5.60;99.90;;;;;;5033318;28;20040;-78
2024/02/28 09:55:21;;;;;;;60.15;31.17;;;5.60;99.90;;;;;;5033266;28;20086;-77
2024/02/28 09:57:52;;;;;;;53.75;30.30;;;5.70;99.90;;;;;;5043455;28;20487;-77
2024/02/28 10:00:20;;;;;;;57.78;30.33;;;5.70;99.90;;;;;;5047091;28;20083;-77
2024/02/28 10:02:48;;;;;;;55.25;29.10;;;5.80;99.90;;;;;;5023333;28;20045;-77
2024/02/28 10:05:15;;;;;;;59.25;30.35;;;5.80;99.90;;;;;;5050014;28;20049;-77
2024/02/28 10:07:41;;;;;;;55.35;30.85;;;5.90;99.90;;;;;;5032947;28;20048;-77
2024/02/28 10:10:10;;;;;;;57.72;29.90;;;5.90;99.90;;;;;;5050213;28;20067;-78
2024/02/28 10:12:41;;;;;;;53.65;30.23;;;6.00;99.90;;;;;;5032966;28;20037;-77
2024/02/28 10:15:09;;;;;;;54.58;29.38;;;6.00;99.90;;;;;;5031974;28;20110;-77
2024/02/28 10:17:37;;;;;;;53.00;29.88;;;5.90;99.90;;;;;;5072639;22;20495;-76
2024/02/28 10:20:04;;;;;;;55.78;28.65;;;5.90;99.90;;;;;;5037759;28;20036;-76
2024/02/28 10:22:36;;;;;;;52.95;29.45;;;5.90;99.90;;;;;;5036137;28;20037;-76
2024/02/28 10:25:05;;;;;;;52.00;29.08;;;7.00;99.90;;;;;;5055077;28;20043;-76
2024/02/28 10:27:33;;;;;;;54.70;29.85;;;5.90;99.90;;;;;;5053829;28;20044;-77
2024/02/28 10:30:04;;;;;;;50.63;29.70;;;6.00;99.90;;;;;;5035964;28;20047;-77
2024/02/28 10:32:31;;;;;;;53.33;31.00;;;5.90;99.90;;;;;;5029840;28;20047;-77
2024/02/28 10:34:59;;;;;;;51.00;30.23;;;6.00;99.90;;;;;;5033015;28;20036;-77
2024/02/28 10:37:26;;;;;;;51.03;29.92;;;6.10;99.90;;;;;;5036338;28;20737;-76
2024/02/28 10:39:56;;;;;;;52.58;31.27;;;6.60;99.90;;;;;;5029869;28;20094;-77
2024/02/28 10:42:26;;;;;;;47.83;29.85;;;6.20;99.90;;;;;;5037002;28;20036;-77
2024/02/28 10:44:54;;;;;;;55.38;30.15;;;6.30;99.90;;;;;;5052740;28;20036;-77
2024/02/28 10:47:20;;;;;;;50.90;29.45;;;7.50;99.90;;;;;;5031960;28;20050;-77
2024/02/28 10:49:46;;;;;;;48.97;29.95;;;6.90;99.90;;;;;;5062182;28;20033;-76
2024/02/28 10:52:14;;;;;;;47.78;29.15;;;6.30;99.90;;;;;;5033326;28;20132;-76
2024/02/28 10:54:42;;;;;;;47.78;29.65;;;7.60;99.90;;;;;;5036593;28;20082;-75
2024/02/28 10:57:12;;;;;;;47.53;30.02;;;6.40;99.90;;;;;;5070743;28;20041;-76
2024/02/28 10:59:39;;;;;;;50.42;29.73;;;6.30;99.90;;;;;;5038517;28;20043;-76
2024/02/28 11:02:06;;;;;;;51.70;30.77;;;6.40;99.90;;;;;;5051721;28;20044;-75
2024/02/28 11:04:32;;;;;;;49.88;30.52;;;6.40;99.90;;;;;;5070803;28;20128;-76
2024/02/28 11:07:00;;;;;;;49.92;30.88;;;7.60;99.90;;;;;;5041189;28;20412;-78
2024/02/28 11:09:32;;;;;;;51.13;31.25;;;6.50;99.90;;;;;;5036111;28;20037;-77
2024/02/28 11:11:58;;;;;;;50.70;31.58;;;6.50;99.90;;;;;;5043314;28;20577;-77
2024/02/28 11:14:26;;;;;;;48.85;30.98;;;6.40;99.90;;;;;;5052169;28;20111;-77
2024/02/28 11:17:05;;;;;;;44.90;29.08;;;6.50;99.90;;;;;;5034586;28;20131;-76
2024/02/28 11:19:32;;;;;;;47.35;29.00;;;6.60;99.90;;;;;;5055311;28;20075;-76
2024/02/28 11:22:00;;;;;;;52.53;31.45;;;6.50;99.90;;;;;;5056782;28;20083;-76
2024/02/28 11:24:36;;;;;;;47.30;29.90;;;6.50;99.90;;;;;;5046436;28;20043;-75
2024/02/28 11:27:02;;;;;;;52.20;31.27;;;6.60;99.90;;;;;;5038973;28;20040;-77
2024/02/28 11:29:29;;;;;;;50.38;30.88;;;6.60;99.90;;;;;;5056050;28;20403;-76
2024/02/28 11:31:56;;;;;;;47.42;29.65;;;6.50;99.90;;;;;;5039982;28;20119;-76
2024/02/28 11:34:22;;;;;;;50.95;31.17;;;7.80;99.90;;;;;;5040441;28;20076;-76
2024/02/28 11:36:49;;;;;;;49.45;32.13;;;7.40;99.90;;;;;;5057637;28;20488;-76
2024/02/28 11:39:15;;;;;;;49.40;30.80;;;6.60;99.90;;;;;;5072916;28;20404;-74
2024/02/28 11:41:46;;;;;;;45.83;30.48;;;7.40;99.90;;;;;;5049532;28;20036;-75
2024/02/28 11:44:14;;;;;;;47.75;31.23;;;7.80;99.90;;;;;;5054130;28;20041;-75
2024/02/28 11:46:47;;;;;;;48.20;32.63;;;7.10;99.90;;;;;;5036488;28;20036;-75
2024/02/28 11:49:13;;;;;;;48.50;31.55;;;6.70;99.90;;;;;;5037282;28;20179;-76
2024/02/28 11:51:51;;;;;;;51.10;31.30;;;6.70;99.90;;;;;;5072497;28;20036;-77
2024/02/28 11:54:17;;;;;;;46.30;30.75;;;6.80;99.90;;;;;;5071117;28;20041;-76
2024/02/28 11:56:42;;;;;;;49.40;31.50;;;6.80;99.90;;;;;;5054710;28;20402;-76
2024/02/28 11:59:10;;;;;;;49.50;31.90;;;6.90;99.90;;;;;;5039242;28;20033;-76
2024/02/28 12:01:37;;;;;;;50.17;31.13;;;7.30;99.90;;;;;;5041807;28;20090;-76
2024/02/28 12:04:06;;;;;;;45.78;31.42;;;6.80;99.90;;;;;;5060589;28;20047;-75
2024/02/28 12:06:36;;;;;;;47.05;31.15;;;6.90;99.90;;;;;;5056652;28;20036;-76
2024/02/28 12:09:03;;;;;;;47.20;31.08;;;6.90;99.90;;;;;;5072196;28;20047;-75
2024/02/28 12:11:31;;;;;;;51.88;31.95;;;7.80;99.90;;;;;;5072349;28;20036;-76
2024/02/28 12:13:59;;;;;;;46.63;31.83;;;6.90;99.90;;;;;;5073890;28;20410;-76
2024/02/28 12:16:25;;;;;;;45.13;30.30;;;7.20;99.90;;;;;;5056423;28;20486;-76
2024/02/28 12:18:57;;;;;;;46.70;30.83;;;7.00;99.90;;;;;;5073313;28;20243;-76
2024/02/28 12:21:23;;;;;;;49.97;31.52;;;6.90;99.90;;;;;;5067149;28;20099;-76
2024/02/28 12:23:50;;;;;;;49.83;31.10;;;7.50;99.90;;;;;;5055284;28;20119;-76
2024/02/28 12:26:20;;;;;;;51.03;31.65;;;8.10;99.90;;;;;;5055564;28;20043;-77
2024/02/28 12:28:46;;;;;;;50.28;31.52;;;6.90;99.90;;;;;;5054477;28;20032;-76
2024/02/28 12:31:13;;;;;;;48.67;32.25;;;8.10;99.90;;;;;;5037723;28;20044;-76